createdAt,value
2022-09-15T00:01:05.196Z,98027.69
2022-09-15T00:03:32.127Z,98044.72
2022-09-15T00:05:58.943Z,98059.31
2022-09-15T00:08:25.853Z,98042.09
2022-09-15T00:11:04.710Z,98053.44
2022-09-15T00:13:32.138Z,98055.94
2022-09-15T00:15:58.919Z,98055.41
2022-09-15T00:18:25.818Z,98054.91
2022-09-15T00:20:52.749Z,98056.69
2022-09-15T00:23:19.572Z,98056.47
2022-09-15T00:25:52.697Z,98044.00
2022-09-15T00:28:21.614Z,98054.38
2022-09-15T00:30:51.817Z,98040.28
2022-09-15T00:33:28.083Z,98025.66
2022-09-15T00:35:55.097Z,98054.75
2022-09-15T00:38:21.914Z,98043.38
2022-09-15T00:40:54.708Z,98069.88
2022-09-15T00:43:42.332Z,98063.31
2022-09-15T00:46:10.119Z,98047.25
2022-09-15T00:48:43.678Z,98058.56
2022-09-15T00:51:13.837Z,98043.97
2022-09-15T00:53:41.834Z,98057.19
2022-09-15T00:56:11.530Z,98067.50
2022-09-15T00:58:43.283Z,98056.75
2022-09-15T01:01:31.315Z,98045.63
2022-09-15T01:03:58.659Z,98046.00
2022-09-15T01:06:45.679Z,98049.16
2022-09-15T01:09:34.972Z,98047.75
2022-09-15T01:12:02.717Z,98063.94
2022-09-15T01:14:45.136Z,98061.19
2022-09-15T01:17:14.992Z,98045.63
2022-09-15T01:19:56.891Z,98018.19
2022-09-15T01:22:51.912Z,98038.63
2022-09-15T01:26:04.760Z,98047.25
2022-09-15T01:29:16.237Z,98045.34
2022-09-15T01:32:09.729Z,98037.50
2022-09-15T01:34:44.634Z,98046.38
2022-09-15T01:37:20.395Z,98040.44
2022-09-15T01:39:52.773Z,98031.84
2022-09-15T01:42:23.274Z,98045.13
2022-09-15T01:44:58.153Z,98038.38
2022-09-15T01:47:29.116Z,98046.72
2022-09-15T01:50:03.267Z,98028.41
2022-09-15T01:52:30.923Z,98028.06
2022-09-15T01:55:02.380Z,98122.47
2022-09-15T01:57:29.431Z,98057.72
2022-09-15T01:59:56.826Z,98025.41
2022-09-15T02:02:35.754Z,98039.78
2022-09-15T02:05:10.299Z,98042.09
2022-09-15T02:07:53.247Z,98033.88
2022-09-15T02:11:14.185Z,98040.91
2022-09-15T02:14:07.076Z,98054.44
2022-09-15T02:16:35.928Z,98057.41
2022-09-15T02:19:14.763Z,98031.00
2022-09-15T02:21:53.966Z,98048.09
2022-09-15T02:24:26.683Z,98108.50
2022-09-15T02:26:54.268Z,98038.91
2022-09-15T02:29:23.920Z,98023.50
2022-09-15T02:31:54.116Z,98048.47
2022-09-15T02:34:34.694Z,98062.66
2022-09-15T02:37:03.288Z,98055.69
2022-09-15T02:39:34.375Z,98046.72
2022-09-15T02:42:02.313Z,98048.53
2022-09-15T02:44:30.673Z,98069.41
2022-09-15T02:47:01.511Z,98054.56
2022-09-15T02:49:28.516Z,98041.16
2022-09-15T02:51:55.667Z,98041.16
2022-09-15T02:54:22.578Z,98055.63
2022-09-15T02:56:49.311Z,98038.09
2022-09-15T02:59:16.104Z,98076.66
2022-09-15T03:01:42.945Z,98045.81
2022-09-15T03:04:09.784Z,98047.28
2022-09-15T03:06:36.579Z,98047.94
2022-09-15T03:09:08.100Z,98059.00
2022-09-15T03:11:36.189Z,98071.31
2022-09-15T03:14:05.634Z,98068.38
2022-09-15T03:16:34.762Z,98061.84
2022-09-15T03:19:02.151Z,98046.81
2022-09-15T03:21:30.621Z,98053.59
2022-09-15T03:24:00.547Z,98046.06
2022-09-15T03:26:41.963Z,98026.63
2022-09-15T03:29:08.821Z,98058.09
2022-09-15T03:31:35.652Z,98049.00
2022-09-15T03:34:02.532Z,98060.31
2022-09-15T03:36:29.565Z,98069.66
2022-09-15T03:38:57.637Z,98040.72
2022-09-15T03:41:25.689Z,98064.13
2022-09-15T03:43:52.528Z,98049.56
2022-09-15T03:46:19.506Z,98040.91
2022-09-15T03:48:46.640Z,98042.56
2022-09-15T03:51:14.423Z,98042.88
2022-09-15T03:53:42.499Z,98064.63
2022-09-15T03:56:11.413Z,98041.47
2022-09-15T03:58:38.456Z,98035.03
2022-09-15T04:01:08.334Z,98071.69
2022-09-15T04:03:38.794Z,98045.53
2022-09-15T04:06:10.365Z,98042.81
2022-09-15T04:08:37.623Z,98038.16
2022-09-15T04:11:09.895Z,98052.91
2022-09-15T04:13:38.902Z,98019.53
2022-09-15T04:16:08.862Z,98052.47
2022-09-15T04:18:36.162Z,98061.31
2022-09-15T04:21:13.822Z,98082.88
2022-09-15T04:23:41.721Z,98051.25
2022-09-15T04:26:17.287Z,98063.38
2022-09-15T04:28:44.262Z,98056.28
2022-09-15T04:31:16.093Z,98062.03
2022-09-15T04:33:44.134Z,98060.44
2022-09-15T04:36:16.941Z,98041.47
2022-09-15T04:38:44.577Z,98068.31
2022-09-15T04:41:12.458Z,98056.34
2022-09-15T04:43:39.381Z,98054.00
2022-09-15T04:46:06.892Z,98052.47
2022-09-15T04:48:33.817Z,98054.16
2022-09-15T04:51:02.120Z,98068.78
2022-09-15T04:53:29.426Z,98061.00
2022-09-15T04:56:10.074Z,98071.88
2022-09-15T04:58:39.073Z,98049.56
2022-09-15T05:01:17.858Z,98068.63
2022-09-15T05:03:45.669Z,98077.28
2022-09-15T05:06:15.834Z,98069.81
2022-09-15T05:08:43.224Z,98086.81
2022-09-15T05:11:12.139Z,98052.59
2022-09-15T05:13:40.047Z,98059.72
2022-09-15T05:16:08.892Z,98067.22
2022-09-15T05:18:39.822Z,98062.97
2022-09-15T05:21:08.295Z,98060.94
2022-09-15T05:23:36.763Z,98063.59
2022-09-15T05:26:06.879Z,98041.94
2022-09-15T05:28:35.549Z,98077.16
2022-09-15T05:31:07.172Z,98062.47
2022-09-15T05:33:34.991Z,98080.75
2022-09-15T05:36:02.053Z,98066.91
2022-09-15T05:38:32.956Z,98074.13
2022-09-15T05:41:08.145Z,98059.88
2022-09-15T05:43:36.864Z,98068.38
2022-09-15T05:46:04.649Z,98038.69
2022-09-15T05:48:31.548Z,98059.22
2022-09-15T05:50:58.457Z,98098.94
2022-09-15T05:53:26.321Z,98062.41
2022-09-15T05:55:57.827Z,98078.50
2022-09-15T05:58:25.769Z,98087.47
2022-09-15T06:00:53.770Z,98087.13
2022-09-15T06:03:22.449Z,98072.88
2022-09-15T06:05:58.475Z,98068.47
2022-09-15T06:08:29.989Z,98061.53
2022-09-15T06:11:19.848Z,98067.91
2022-09-15T06:13:47.304Z,98061.28
2022-09-15T06:16:16.802Z,98074.09
2022-09-15T06:18:43.685Z,98073.94
2022-09-15T06:21:17.150Z,98085.47
2022-09-15T06:23:49.915Z,98089.59
2022-09-15T06:26:19.311Z,98086.50
2022-09-15T06:29:07.746Z,98086.75
2022-09-15T06:31:35.068Z,98103.72
2022-09-15T06:34:02.244Z,98098.50
2022-09-15T06:36:48.747Z,98101.81
2022-09-15T06:39:15.574Z,98098.22
2022-09-15T06:42:01.327Z,98104.22
2022-09-15T06:44:29.489Z,98089.81
2022-09-15T06:47:09.382Z,98094.38
2022-09-15T06:49:36.426Z,98081.28
2022-09-15T06:52:03.253Z,98090.22
2022-09-15T06:54:30.108Z,98104.38
2022-09-15T06:56:57.047Z,98099.75
2022-09-15T06:59:23.954Z,98099.28
2022-09-15T07:01:54.515Z,98093.28
2022-09-15T07:04:22.277Z,98091.66
2022-09-15T07:06:49.310Z,98095.53
2022-09-15T07:09:16.204Z,98104.88
2022-09-15T07:11:43.101Z,98076.75
2022-09-15T07:14:12.451Z,98086.19
2022-09-15T07:16:39.355Z,98086.78
2022-09-15T07:19:34.289Z,98108.56
2022-09-15T07:22:01.144Z,98093.13
2022-09-15T07:24:27.930Z,98101.78
2022-09-15T07:26:54.799Z,98099.13
2022-09-15T07:29:21.603Z,98116.81
2022-09-15T07:31:48.640Z,98094.28
2022-09-15T07:34:15.492Z,98096.78
2022-09-15T07:36:42.344Z,98100.63
2022-09-15T07:39:10.182Z,98100.63
2022-09-15T07:41:38.350Z,98107.41
2022-09-15T07:44:07.330Z,98112.69
2022-09-15T07:46:37.408Z,98101.50
2022-09-15T07:49:04.469Z,98115.38
2022-09-15T07:51:31.375Z,98098.53
2022-09-15T07:53:58.389Z,98121.81
2022-09-15T07:56:27.605Z,98111.22
2022-09-15T07:58:54.388Z,98118.28
2022-09-15T08:01:21.308Z,98110.78
2022-09-15T08:03:51.200Z,98117.84
2022-09-15T08:06:23.344Z,98117.84
2022-09-15T08:08:50.721Z,98124.06
2022-09-15T08:11:20.112Z,98101.50
2022-09-15T08:13:48.581Z,98105.34
2022-09-15T08:16:18.206Z,98101.81
2022-09-15T08:18:45.570Z,98089.88
2022-09-15T08:21:34.573Z,98120.63
2022-09-15T08:24:01.601Z,98114.00
2022-09-15T08:26:29.913Z,98116.38
2022-09-15T08:28:57.356Z,98135.94
2022-09-15T08:31:24.569Z,98111.47
2022-09-15T08:33:54.101Z,98128.72
2022-09-15T08:36:21.365Z,98111.88
2022-09-15T08:38:48.241Z,98109.06
2022-09-15T08:41:23.723Z,98119.13
2022-09-15T08:44:07.617Z,98115.66
2022-09-15T08:46:41.026Z,98120.09
2022-09-15T08:49:35.560Z,98114.69
2022-09-15T08:52:16.156Z,98131.19
2022-09-15T08:54:57.103Z,98108.72
2022-09-15T08:57:25.513Z,98117.78
2022-09-15T08:59:53.785Z,98110.53
2022-09-15T09:02:49.903Z,98142.00
2022-09-15T09:05:47.655Z,98133.44
2022-09-15T09:08:17.247Z,98121.53
2022-09-15T09:11:04.288Z,98122.25
2022-09-15T09:14:12.862Z,98125.25
2022-09-15T09:16:39.654Z,98141.28
2022-09-15T09:19:33.522Z,98127.72
2022-09-15T09:22:09.449Z,98133.97
2022-09-15T09:24:42.404Z,98129.16
2022-09-15T09:27:36.908Z,98152.97
2022-09-15T09:30:13.026Z,98135.25
2022-09-15T09:33:17.312Z,98141.16
2022-09-15T09:35:49.340Z,98140.28
2022-09-15T09:38:26.173Z,98137.44
2022-09-15T09:40:53.207Z,98145.88
2022-09-15T09:43:20.531Z,98137.06
2022-09-15T09:45:47.542Z,98160.19
2022-09-15T09:48:23.826Z,98148.81
2022-09-15T09:50:51.090Z,98154.50
2022-09-15T09:53:44.236Z,98136.69
2022-09-15T09:56:14.155Z,98147.53
2022-09-15T09:58:40.972Z,98162.00
2022-09-15T10:01:16.846Z,98154.41
2022-09-15T10:03:44.211Z,98148.91
2022-09-15T10:06:16.022Z,98159.91
2022-09-15T10:08:56.454Z,98146.63
2022-09-15T10:11:40.174Z,98169.19
2022-09-15T10:14:07.086Z,98159.41
2022-09-15T10:16:34.117Z,98141.19
2022-09-15T10:19:01.531Z,98151.53
2022-09-15T10:21:29.721Z,98171.22
2022-09-15T10:23:56.588Z,98150.81
2022-09-15T10:26:33.767Z,98153.34
2022-09-15T10:29:18.520Z,98143.19
2022-09-15T10:31:46.368Z,98130.50
2022-09-15T10:34:26.835Z,98153.31
2022-09-15T10:37:01.636Z,98153.22
2022-09-15T10:39:44.088Z,98157.91
2022-09-15T10:42:15.536Z,98141.56
2022-09-15T10:45:07.048Z,98157.81
2022-09-15T10:48:02.987Z,98152.34
2022-09-15T10:50:54.120Z,98167.47
2022-09-15T10:53:57.517Z,98153.53
2022-09-15T10:56:36.964Z,98160.53
2022-09-15T10:59:35.996Z,98158.41
2022-09-15T11:02:24.455Z,98165.22
2022-09-15T11:05:09.436Z,98176.25
2022-09-15T11:07:42.000Z,98161.53
2022-09-15T11:10:32.214Z,98155.31
2022-09-15T11:13:04.681Z,98160.66
2022-09-15T11:15:43.584Z,98166.31
2022-09-15T11:18:33.171Z,98179.09
2022-09-15T11:21:24.493Z,98176.75
2022-09-15T11:24:07.567Z,98158.25
2022-09-15T11:26:43.863Z,98172.84
2022-09-15T11:29:33.748Z,98178.13
2022-09-15T11:32:06.641Z,98176.75
2022-09-15T11:34:41.244Z,98168.66
2022-09-15T11:37:47.745Z,98165.22
2022-09-15T11:40:42.002Z,98164.13
2022-09-15T11:43:24.150Z,98156.47
2022-09-15T11:45:58.161Z,98159.78
2022-09-15T11:48:46.293Z,98179.16
2022-09-15T11:51:19.928Z,98170.53
2022-09-15T11:54:13.168Z,98156.31
2022-09-15T11:56:55.470Z,98155.22
2022-09-15T11:59:50.509Z,98169.72
2022-09-15T12:02:24.772Z,98168.59
2022-09-15T12:05:15.008Z,98180.06
2022-09-15T12:08:04.539Z,98160.78
2022-09-15T12:10:39.730Z,98175.03
2022-09-15T12:13:11.305Z,98164.94
2022-09-15T12:15:38.478Z,98166.41
2022-09-15T12:18:34.522Z,98167.69
2022-09-15T12:21:12.405Z,98176.50
2022-09-15T12:23:45.653Z,98172.47
2022-09-15T12:26:20.100Z,98203.09
2022-09-15T12:28:46.898Z,98193.56
2022-09-15T12:31:31.638Z,98185.00
2022-09-15T12:34:18.110Z,98186.53
2022-09-15T12:36:49.222Z,98182.03
2022-09-15T12:39:36.638Z,98199.72
2022-09-15T12:42:22.015Z,98189.53
2022-09-15T12:45:02.047Z,98152.72
2022-09-15T12:47:53.589Z,98175.41
2022-09-15T12:50:20.432Z,98167.16
2022-09-15T12:53:13.389Z,98164.38
2022-09-15T12:55:50.713Z,98194.59
2022-09-15T12:58:27.447Z,98183.13
2022-09-15T13:01:23.307Z,98186.97
2022-09-15T13:03:50.120Z,98214.97
2022-09-15T13:06:16.839Z,98187.97
2022-09-15T13:08:48.052Z,98178.97
2022-09-15T13:11:27.126Z,98166.22
2022-09-15T13:14:19.418Z,98188.69
2022-09-15T13:17:04.362Z,98201.59
2022-09-15T13:19:34.237Z,98179.63
2022-09-15T13:22:16.106Z,98179.06
2022-09-15T13:24:59.127Z,98198.94
2022-09-15T13:27:33.300Z,98190.38
2022-09-15T13:30:18.677Z,98182.91
2022-09-15T13:32:49.972Z,98179.97
2022-09-15T13:35:28.121Z,98189.41
2022-09-15T13:38:26.271Z,98202.63
2022-09-15T13:41:33.460Z,98195.22
2022-09-15T13:44:15.168Z,98191.22
2022-09-15T13:47:08.301Z,98209.53
2022-09-15T13:49:45.644Z,98194.59
2022-09-15T13:52:18.389Z,98201.25
2022-09-15T13:55:16.361Z,98218.34
2022-09-15T14:00:53.182Z,98196.53
2022-09-15T14:03:42.497Z,98181.34
2022-09-15T14:06:37.017Z,98193.91
2022-09-15T14:09:16.631Z,98201.88
2022-09-15T14:12:07.877Z,98196.56
2022-09-15T14:14:42.680Z,98201.44
2022-09-15T14:17:23.251Z,98206.88
2022-09-15T14:19:53.553Z,98175.72
2022-09-15T14:22:20.518Z,98220.91
2022-09-15T14:24:50.887Z,98221.84
2022-09-15T14:27:44.652Z,98227.22
2022-09-15T14:30:37.910Z,98212.75
2022-09-15T14:33:04.884Z,98198.50
2022-09-15T14:35:37.493Z,98206.88
2022-09-15T14:38:06.908Z,98205.53
2022-09-15T14:40:38.858Z,98224.88
2022-09-15T14:43:26.223Z,98201.66
2022-09-15T14:46:05.781Z,98230.81
2022-09-15T14:48:41.910Z,98208.84
2022-09-15T14:51:17.356Z,98219.03
2022-09-15T14:53:49.869Z,98219.75
2022-09-15T14:56:22.860Z,98200.94
2022-09-15T14:59:01.107Z,98205.69
2022-09-15T15:01:52.477Z,98231.03
2022-09-15T15:04:22.403Z,98213.03
2022-09-15T15:07:13.850Z,98239.00
2022-09-15T15:09:59.757Z,98221.28
2022-09-15T15:12:37.309Z,98230.28
2022-09-15T15:15:06.026Z,98201.94
2022-09-15T15:17:53.189Z,98215.34
2022-09-15T15:20:26.946Z,98209.53
2022-09-15T15:23:14.784Z,98229.38
2022-09-15T15:26:02.465Z,98206.25
2022-09-15T15:28:36.391Z,98212.31
2022-09-15T15:31:20.840Z,98218.94
2022-09-15T15:33:53.928Z,98231.81
2022-09-15T15:36:23.603Z,98218.28
2022-09-15T15:38:56.248Z,98234.63
2022-09-15T15:41:29.347Z,98222.88
2022-09-15T15:44:01.105Z,98234.06
2022-09-15T15:46:47.026Z,98240.97
2022-09-15T15:49:14.160Z,98219.19
2022-09-15T15:51:41.713Z,98221.56
2022-09-15T15:54:08.875Z,98229.97
2022-09-15T15:56:37.919Z,98219.25
2022-09-15T15:59:05.509Z,98228.56
2022-09-15T16:01:38.656Z,98222.97
2022-09-15T16:04:05.503Z,98215.63
2022-09-15T16:06:36.140Z,98233.78
2022-09-15T16:09:04.250Z,98236.50
2022-09-15T16:11:34.066Z,98229.28
2022-09-15T16:14:01.017Z,98219.00
2022-09-15T16:16:35.298Z,98239.03
2022-09-15T16:19:02.293Z,98233.94
2022-09-15T16:21:39.436Z,98220.22
2022-09-15T16:24:12.760Z,98221.28
2022-09-15T16:27:01.998Z,98234.69
2022-09-15T16:29:29.380Z,98217.16
2022-09-15T16:32:07.488Z,98246.19
2022-09-15T16:34:54.940Z,98233.84
2022-09-15T16:37:22.213Z,98227.50
2022-09-15T16:39:49.110Z,98248.28
2022-09-15T16:42:15.975Z,98227.78
2022-09-15T16:44:42.857Z,98251.22
2022-09-15T16:47:09.708Z,98240.47
2022-09-15T16:49:36.602Z,98248.28
2022-09-15T16:52:04.397Z,98245.03
2022-09-15T16:54:31.331Z,98242.66
2022-09-15T16:56:58.430Z,98238.25
2022-09-15T16:59:25.301Z,98240.75
2022-09-15T17:01:55.271Z,98225.81
2022-09-15T17:04:22.286Z,98248.53
2022-09-15T17:06:49.233Z,98223.47
2022-09-15T17:09:15.968Z,98242.91
2022-09-15T17:11:42.877Z,98228.94
2022-09-15T17:14:15.086Z,98240.00
2022-09-15T17:16:44.898Z,98250.31
2022-09-15T17:19:11.662Z,98236.78
2022-09-15T17:21:38.531Z,98229.72
2022-09-15T17:24:05.729Z,98230.31
2022-09-15T17:26:32.979Z,98228.81
2022-09-15T17:28:59.846Z,98222.50
2022-09-15T17:31:26.707Z,98230.44
2022-09-15T17:33:53.880Z,98233.97
2022-09-15T17:36:25.585Z,98227.34
2022-09-15T17:38:53.773Z,98223.22
2022-09-15T17:41:21.944Z,98242.81
2022-09-15T17:43:49.214Z,98214.66
2022-09-15T17:46:15.995Z,98226.75
2022-09-15T17:48:46.530Z,98237.38
2022-09-15T17:51:16.041Z,98242.38
2022-09-15T17:53:48.975Z,98222.91
2022-09-15T17:56:16.314Z,98223.81
2022-09-15T17:58:43.347Z,98180.47
2022-09-15T18:01:14.767Z,98225.13
2022-09-15T18:03:44.271Z,98204.16
2022-09-15T18:06:14.131Z,98217.88
2022-09-15T18:08:41.402Z,98236.72
2022-09-15T18:11:10.787Z,98224.34
2022-09-15T18:13:46.335Z,98221.22
2022-09-15T18:16:14.864Z,98214.16
2022-09-15T18:18:47.567Z,98235.63
2022-09-15T18:21:29.021Z,98218.25
2022-09-15T18:23:56.935Z,98215.31
2022-09-15T18:26:26.548Z,98201.13
2022-09-15T18:29:01.069Z,98211.88
2022-09-15T18:31:28.009Z,98214.81
2022-09-15T18:33:55.190Z,98245.69
2022-09-15T18:36:22.347Z,98227.72
2022-09-15T18:38:49.181Z,98228.91
2022-09-15T18:41:42.105Z,98233.25
2022-09-15T18:44:09.011Z,98221.78
2022-09-15T18:46:38.125Z,98231.41
2022-09-15T18:49:05.391Z,98236.34
2022-09-15T18:51:50.582Z,98224.44
2022-09-15T18:54:18.401Z,98229.75
2022-09-15T18:56:45.381Z,98212.69
2022-09-15T18:59:15.485Z,98213.00
2022-09-15T19:01:46.934Z,98216.00
2022-09-15T19:04:13.878Z,98227.72
2022-09-15T19:06:40.671Z,98206.69
2022-09-15T19:09:07.503Z,98195.75
2022-09-15T19:11:34.298Z,98219.16
2022-09-15T19:14:01.091Z,98199.78
2022-09-15T19:16:46.624Z,98224.75
2022-09-15T19:19:14.895Z,98228.00
2022-09-15T19:21:57.994Z,98205.94
2022-09-15T19:24:25.139Z,98214.28
2022-09-15T19:26:52.224Z,98211.44
2022-09-15T19:29:19.321Z,98225.84
2022-09-15T19:31:46.094Z,98207.53
2022-09-15T19:34:12.956Z,98216.06
2022-09-15T19:36:39.858Z,98222.34
2022-09-15T19:39:06.734Z,98212.31
2022-09-15T19:41:33.536Z,98246.25
2022-09-15T19:44:01.564Z,98215.38
2022-09-15T19:46:28.463Z,98232.94
2022-09-15T19:48:55.578Z,98239.59
2022-09-15T19:51:22.701Z,98207.25
2022-09-15T19:53:52.825Z,98232.06
2022-09-15T19:56:21.498Z,98211.38
2022-09-15T19:59:06.625Z,98218.56
2022-09-15T20:01:33.775Z,98215.50
2022-09-15T20:04:00.569Z,98193.31
2022-09-15T20:06:32.137Z,98202.59
2022-09-15T20:08:59.483Z,98221.53
2022-09-15T20:11:27.676Z,98211.59
2022-09-15T20:13:54.859Z,98208.72
2022-09-15T20:16:23.352Z,98201.03
2022-09-15T20:18:52.483Z,98194.84
2022-09-15T20:21:39.095Z,98215.97
2022-09-15T20:24:10.410Z,98203.56
2022-09-15T20:26:57.551Z,98198.69
2022-09-15T20:29:24.499Z,98209.06
2022-09-15T20:32:14.355Z,98210.97
2022-09-15T20:34:41.377Z,98212.00
2022-09-15T20:37:08.161Z,98203.34
2022-09-15T20:39:35.009Z,98206.31
2022-09-15T20:42:01.901Z,98204.41
2022-09-15T20:44:28.719Z,98216.97
2022-09-15T20:46:55.449Z,98195.75
2022-09-15T20:49:22.342Z,98187.81
2022-09-15T20:51:49.196Z,98227.56
2022-09-15T20:54:16.049Z,98215.81
2022-09-15T20:56:56.023Z,98191.75
2022-09-15T20:59:22.985Z,98192.38
2022-09-15T21:01:49.756Z,98210.16
2022-09-15T21:04:16.830Z,98200.31
2022-09-15T21:06:43.639Z,98192.50
2022-09-15T21:09:10.655Z,98184.72
2022-09-15T21:11:38.494Z,98208.06
2022-09-15T21:14:10.537Z,98208.72
2022-09-15T21:16:37.614Z,98219.09
2022-09-15T21:19:04.973Z,98207.78
2022-09-15T21:21:33.130Z,98211.69
2022-09-15T21:24:05.871Z,98203.34
2022-09-15T21:26:37.983Z,98198.25
2022-09-15T21:29:04.796Z,98223.63
2022-09-15T21:31:32.853Z,98195.41
2022-09-15T21:33:59.842Z,98196.59
2022-09-15T21:36:29.501Z,98190.88
2022-09-15T21:38:58.422Z,98197.22
2022-09-15T21:41:28.201Z,98198.22
2022-09-15T21:44:01.106Z,98205.72
2022-09-15T21:46:31.671Z,98203.25
2022-09-15T21:49:00.204Z,98200.13
2022-09-15T21:51:29.038Z,98201.34
2022-09-15T21:53:58.071Z,98197.84
2022-09-15T21:56:25.863Z,98198.22
2022-09-15T21:58:52.727Z,98178.56
2022-09-15T22:01:21.191Z,98182.88
2022-09-15T22:03:56.372Z,98191.84
2022-09-15T22:06:26.228Z,98190.06
2022-09-15T22:09:00.041Z,98186.25
2022-09-15T22:11:27.626Z,98181.22
2022-09-15T22:13:54.591Z,98185.06
2022-09-15T22:16:24.218Z,98192.59
2022-09-15T22:18:51.703Z,98198.28
2022-09-15T22:21:19.497Z,98210.22
2022-09-15T22:23:47.774Z,98198.00
2022-09-15T22:26:18.539Z,98178.25
2022-09-15T22:28:46.162Z,98192.28
2022-09-15T22:31:16.595Z,98199.25
2022-09-15T22:33:44.374Z,98177.16
2022-09-15T22:36:16.992Z,98188.22
2022-09-15T22:38:44.106Z,98192.78
2022-09-15T22:41:16.490Z,98192.00
2022-09-15T22:43:45.058Z,98194.66
2022-09-15T22:46:12.126Z,98183.78
2022-09-15T22:48:43.267Z,98164.88
2022-09-15T22:51:11.502Z,98207.72
2022-09-15T22:53:38.445Z,98185.41
2022-09-15T22:56:09.016Z,98186.81
2022-09-15T22:58:37.508Z,98190.94
2022-09-15T23:01:32.304Z,98202.44
2022-09-15T23:04:01.982Z,98170.97
2022-09-15T23:06:31.959Z,98180.66
2022-09-15T23:09:01.410Z,98179.81
2022-09-15T23:11:29.629Z,98173.91
2022-09-15T23:13:56.595Z,98187.19
2022-09-15T23:16:29.206Z,98172.59
2022-09-15T23:18:56.299Z,98175.44
2022-09-15T23:21:28.699Z,98174.38
2022-09-15T23:23:56.034Z,98180.63
2022-09-15T23:26:24.133Z,98170.78
2022-09-15T23:28:51.878Z,98159.38
2022-09-15T23:31:19.951Z,98162.09
2022-09-15T23:33:47.575Z,98148.81
2022-09-15T23:36:16.726Z,98178.56
2022-09-15T23:38:45.009Z,98129.84
2022-09-15T23:41:13.020Z,98147.81
2022-09-15T23:43:40.118Z,98171.06
2022-09-15T23:46:06.987Z,98161.34
2022-09-15T23:48:34.013Z,98151.38
2022-09-15T23:51:01.012Z,98158.44
2022-09-15T23:53:28.898Z,98158.44
2022-09-15T23:55:56.662Z,98156.53
2022-09-15T23:58:23.953Z,98143.53
